Time;durP1;ratioP1;P1;durP2;ratioP2;P2;SDS_P1;SDS_P2;PMS_P1;PMS_P2;Temp;Humidity;BMP_temperature;BMP_pressure;BME280_temperature;BME280_humidity;BME280_pressure;Samples;Min_cycle;Max_cycle;Signal;HPM_P1;HPM_P2
2023/05/09 00:01:13;;;;;;;;;;;15.80;99.90;;;;;;5031259;28;19928;-68
2023/05/09 00:03:39;;;;;;;;;;;15.80;99.90;;;;;;5028353;28;19982;-68
2023/05/09 00:06:05;;;;;;;;;;;15.80;99.90;;;;;;5027186;28;19985;-67
2023/05/09 00:08:31;;;;;;;;;;;15.80;99.90;;;;;;5030090;28;20050;-68
2023/05/09 00:10:56;;;;;;;;;;;15.80;99.90;;;;;;5030845;28;20016;-67
2023/05/09 00:13:23;;;;;;;;;;;15.80;99.90;;;;;;5025848;28;19925;-68
2023/05/09 00:15:48;;;;;;;;;;;15.90;99.90;;;;;;5017296;28;19922;-67
2023/05/09 00:18:14;;;;;;;;;;;15.90;99.90;;;;;;5031263;28;19928;-68
2023/05/09 00:20:39;;;;;;;;;;;15.90;99.90;;;;;;5027714;28;19945;-68
2023/05/09 00:23:05;;;;;;;;;;;16.00;99.90;;;;;;5030558;28;20071;-68
2023/05/09 00:25:31;;;;;;;;;;;16.00;99.90;;;;;;5035542;28;19929;-68
2023/05/09 00:27:56;;;;;;;;;;;16.00;99.90;;;;;;5027688;28;20030;-68
2023/05/09 00:30:22;;;;;;;;;;;16.00;99.90;;;;;;5019784;28;19991;-68
2023/05/09 00:32:47;;;;;;;;;;;16.00;99.90;;;;;;5035243;28;19974;-68
2023/05/09 00:35:13;;;;;;;;;;;16.00;99.90;;;;;;5034053;28;19921;-65
2023/05/09 00:37:38;;;;;;;;;;;16.00;99.90;;;;;;5020656;28;19921;-68
2023/05/09 00:40:05;;;;;;;;;;;16.10;99.90;;;;;;5026828;28;20398;-68
2023/05/09 00:42:30;;;;;;;;;;;16.10;99.90;;;;;;5034730;28;20429;-68
2023/05/09 00:44:56;;;;;;;;;;;16.10;99.90;;;;;;5035174;28;19921;-67
2023/05/09 00:47:22;;;;;;;;;;;16.10;99.90;;;;;;5027304;28;20393;-68
2023/05/09 00:49:48;;;;;;;;;;;16.10;99.90;;;;;;5033299;28;20372;-67
2023/05/09 00:52:14;;;;;;;;;;;16.10;99.90;;;;;;5033613;28;19968;-68
2023/05/09 00:54:39;;;;;;;;;;;16.10;99.90;;;;;;5021930;28;19925;-68
2023/05/09 00:57:05;;;;;;;;;;;16.10;99.90;;;;;;5031135;28;19929;-68
2023/05/09 00:59:30;;;;;;;;;;;16.10;99.90;;;;;;5034772;28;19929;-68
2023/05/09 01:01:56;;;;;;;;;;;16.10;99.90;;;;;;5021981;28;20291;-67
2023/05/09 01:04:21;;;;;;;;;;;16.00;99.90;;;;;;5026116;28;19921;-68
2023/05/09 01:07:06;;;;;;;;;;;16.10;99.90;;;;;;5033017;28;19925;-68
2023/05/09 01:09:40;;;;;;;;;;;16.00;99.90;;;;;;5023772;28;20012;-65
2023/05/09 01:12:08;;;;;;;;;;;16.10;99.90;;;;;;5022355;28;19925;-68
2023/05/09 01:14:43;;;;;;;;;;;16.00;99.90;;;;;;5033420;28;19929;-68
2023/05/09 01:17:12;;;;;;;;;;;15.90;99.90;;;;;;5034572;28;20015;-67
2023/05/09 01:19:37;;;;;;;;;;;15.90;99.90;;;;;;5017522;28;20348;-68
2023/05/09 01:22:06;;;;;;;;;;;15.90;99.90;;;;;;5027902;28;19956;-67
2023/05/09 01:24:50;;;;;;;;;;;15.80;99.90;;;;;;5034035;28;20015;-68
2023/05/09 01:27:25;;;;;;;;;;;15.80;99.90;;;;;;5023635;28;19948;-67
2023/05/09 01:29:55;;;;;;;;;;;15.80;99.90;;;;;;5018139;28;19928;-67
2023/05/09 01:32:26;;;;;;;;;;;15.80;99.90;;;;;;5034145;28;19921;-68
2023/05/09 01:34:53;;;;;;;;;;;15.70;99.90;;;;;;5031623;28;20382;-68
2023/05/09 01:37:22;;;;;;;;;;;15.70;99.90;;;;;;5021847;28;19921;-68
2023/05/09 01:39:50;;;;;;;;;;;15.70;99.90;;;;;;5030360;28;19967;-68
2023/05/09 01:42:17;;;;;;;;;;;15.60;99.90;;;;;;5034049;28;19921;-67
2023/05/09 01:44:45;;;;;;;;;;;15.60;99.90;;;;;;5021529;28;20399;-67
2023/05/09 01:47:10;;;;;;;;;;;15.60;99.90;;;;;;5031165;28;19925;-68
2023/05/09 01:49:37;;;;;;;;;;;15.60;99.90;;;;;;5033826;28;19928;-67
2023/05/09 01:52:04;;;;;;;;;;;15.60;99.90;;;;;;5031892;28;19974;-66
2023/05/09 01:54:31;;;;;;;;;;;15.60;99.90;;;;;;5026092;28;19925;-67
2023/05/09 01:56:57;;;;;;;;;;;15.60;99.90;;;;;;5033567;28;19921;-68
2023/05/09 01:59:24;;;;;;;;;;;15.60;99.90;;;;;;5033747;28;19921;-68
2023/05/09 02:01:49;;;;;;;;;;;15.60;99.90;;;;;;5021086;28;19921;-68
2023/05/09 02:04:16;;;;;;;;;;;15.70;99.90;;;;;;5029173;28;19921;-67
2023/05/09 02:06:43;;;;;;;;;;;15.60;99.90;;;;;;5033681;28;20395;-66
2023/05/09 02:09:09;;;;;;;;;;;15.70;99.90;;;;;;5020809;28;19929;-67
2023/05/09 02:11:35;;;;;;;;;;;15.70;99.90;;;;;;5025945;28;20410;-67
2023/05/09 02:14:00;;;;;;;;;;;15.60;99.90;;;;;;5033260;28;20032;-67
2023/05/09 02:16:26;;;;;;;;;;;15.60;99.90;;;;;;5027157;28;19935;-66
2023/05/09 02:18:52;;;;;;;;;;;15.60;99.90;;;;;;5016556;28;20032;-68
2023/05/09 02:21:17;;;;;;;;;;;15.60;99.90;;;;;;5029413;28;20379;-68
2023/05/09 02:23:43;;;;;;;;;;;15.50;99.90;;;;;;5032266;28;19921;-67
2023/05/09 02:26:08;;;;;;;;;;;15.50;99.90;;;;;;5027306;28;20876;-66
2023/05/09 02:28:35;;;;;;;;;;;15.40;99.90;;;;;;5018510;28;19935;-67
2023/05/09 02:31:00;;;;;;;;;;;15.40;99.90;;;;;;5032018;28;19971;-68
2023/05/09 02:33:26;;;;;;;;;;;15.40;99.90;;;;;;5030443;28;20359;-68
2023/05/09 02:35:52;;;;;;;;;;;15.30;99.90;;;;;;5026257;28;20449;-68
2023/05/09 02:38:18;;;;;;;;;;;15.20;99.90;;;;;;5032919;28;19925;-67
2023/05/09 02:40:45;;;;;;;;;;;15.20;99.90;;;;;;5029918;28;19921;-67
2023/05/09 02:43:11;;;;;;;;;;;15.20;99.90;;;;;;5027253;28;20305;-66
2023/05/09 02:45:36;;;;;;;;;;;15.20;99.90;;;;;;5031020;28;19925;-68
2023/05/09 02:48:02;;;;;;;;;;;15.20;99.90;;;;;;5032761;28;19921;-67
2023/05/09 02:50:27;;;;;;;;;;;15.20;99.90;;;;;;5027000;28;20411;-67
2023/05/09 02:52:53;;;;;;;;;;;15.20;99.90;;;;;;5023481;28;19936;-68
2023/05/09 02:55:18;;;;;;;;;;;15.20;99.90;;;;;;5032576;28;19921;-67
2023/05/09 02:57:44;;;;;;;;;;;15.10;99.90;;;;;;5032456;28;19980;-67
2023/05/09 03:00:10;;;;;;;;;;;15.10;99.90;;;;;;5028542;28;20391;-67
2023/05/09 03:02:36;;;;;;;;;;;15.10;99.90;;;;;;5031900;28;19921;-67
2023/05/09 03:05:01;;;;;;;;;;;15.10;99.90;;;;;;5032595;28;20314;-67
2023/05/09 03:07:28;;;;;;;;;;;15.00;99.90;;;;;;5027406;28;19968;-67
2023/05/09 03:09:53;;;;;;;;;;;15.00;99.90;;;;;;5025627;28;19925;-67
2023/05/09 03:12:19;;;;;;;;;;;15.00;99.90;;;;;;5032307;28;20338;-68
2023/05/09 03:14:44;;;;;;;;;;;15.00;99.90;;;;;;5032202;28;20012;-67
2023/05/09 03:17:10;;;;;;;;;;;15.00;99.90;;;;;;5022814;28;20303;-67
2023/05/09 03:19:35;;;;;;;;;;;14.90;99.90;;;;;;5025211;28;19956;-67
2023/05/09 03:22:01;;;;;;;;;;;14.90;99.90;;;;;;5032373;28;19921;-67
2023/05/09 03:24:27;;;;;;;;;;;14.80;99.90;;;;;;5028116;28;19921;-67
2023/05/09 03:26:52;;;;;;;;;;;14.80;99.90;;;;;;5030770;28;19933;-67
2023/05/09 03:29:18;;;;;;;;;;;14.80;99.90;;;;;;5031680;28;19921;-68
2023/05/09 03:31:43;;;;;;;;;;;14.80;99.90;;;;;;5032095;28;19921;-67
2023/05/09 03:34:13;;;;;;;;;;;14.80;99.90;;;;;;5022127;28;19929;-67
2023/05/09 03:36:42;;;;;;;;;;;14.80;99.90;;;;;;5022792;28;19921;-67
2023/05/09 03:39:08;;;;;;;;;;;14.70;99.90;;;;;;5030683;28;19921;-68
2023/05/09 03:41:35;;;;;;;;;;;14.70;99.90;;;;;;5019175;28;19941;-67
2023/05/09 03:44:00;;;;;;;;;;;14.70;99.90;;;;;;5027453;28;19969;-67
2023/05/09 03:46:26;;;;;;;;;;;14.70;99.90;;;;;;5030617;28;19987;-68
2023/05/09 03:48:51;;;;;;;;;;;14.70;99.90;;;;;;5025324;28;19925;-67
2023/05/09 03:51:17;;;;;;;;;;;14.70;99.90;;;;;;5023764;28;20284;-68
2023/05/09 03:53:44;;;;;;;;;;;14.70;99.90;;;;;;5031301;28;19921;-67
2023/05/09 03:56:10;;;;;;;;;;;14.70;99.90;;;;;;5030703;28;19925;-67
2023/05/09 03:58:35;;;;;;;;;;;14.70;99.90;;;;;;5019790;28;19925;-67
2023/05/09 04:01:01;;;;;;;;;;;14.70;99.90;;;;;;5026250;28;19921;-68
2023/05/09 04:03:27;;;;;;;;;;;14.70;99.90;;;;;;5030596;28;19921;-68
2023/05/09 04:05:52;;;;;;;;;;;14.70;99.90;;;;;;5020496;28;19964;-67
2023/05/09 04:08:18;;;;;;;;;;;14.70;99.90;;;;;;5028581;28;19921;-67
2023/05/09 04:10:43;;;;;;;;;;;14.60;99.90;;;;;;5028227;28;19927;-68
2023/05/09 04:13:10;;;;;;;;;;;14.70;99.90;;;;;;5022618;28;19979;-67
2023/05/09 04:15:35;;;;;;;;;;;14.60;99.90;;;;;;5024526;28;19929;-67
2023/05/09 04:18:01;;;;;;;;;;;14.60;99.90;;;;;;5031398;28;19925;-68
2023/05/09 04:20:26;;;;;;;;;;;14.60;99.90;;;;;;5031657;28;20291;-66
2023/05/09 04:22:52;;;;;;;;;;;14.60;99.90;;;;;;5016920;28;19921;-68
2023/05/09 04:25:19;;;;;;;;;;;14.70;99.90;;;;;;5027916;28;19983;-68
2023/05/09 04:27:44;;;;;;;;;;;14.60;99.90;;;;;;5031276;28;19955;-67
2023/05/09 04:30:10;;;;;;;;;;;14.50;99.90;;;;;;5013600;28;19925;-67
2023/05/09 04:32:36;;;;;;;;;;;14.50;99.90;;;;;;5022062;28;19921;-68
2023/05/09 04:35:02;;;;;;;;;;;14.50;99.90;;;;;;5031157;28;20299;-68
2023/05/09 04:37:28;;;;;;;;;;;14.50;99.90;;;;;;5031138;28;20299;-67
2023/05/09 04:39:53;;;;;;;;;;;14.50;99.90;;;;;;5022213;28;19921;-67
2023/05/09 04:42:19;;;;;;;;;;;14.50;99.90;;;;;;5027933;28;19932;-67
2023/05/09 04:44:45;;;;;;;;;;;14.50;99.90;;;;;;5030382;28;20051;-67
2023/05/09 04:47:10;;;;;;;;;;;14.50;99.90;;;;;;5022233;28;20012;-68
2023/05/09 04:49:36;;;;;;;;;;;14.60;99.90;;;;;;5022300;28;19921;-68
2023/05/09 04:52:01;;;;;;;;;;;14.70;99.90;;;;;;5030241;28;19921;-68
2023/05/09 04:54:27;;;;;;;;;;;14.80;99.90;;;;;;5031366;28;19921;-67
2023/05/09 04:56:52;;;;;;;;;;;14.90;99.90;;;;;;5021692;28;20024;-68
2023/05/09 04:59:18;;;;;;;;;;;14.90;99.90;;;;;;5016137;28;19921;-68
2023/05/09 05:01:43;;;;;;;;;;;15.00;99.90;;;;;;5028208;28;19928;-67
2023/05/09 05:04:09;;;;;;;;;;;15.00;99.90;;;;;;5010761;28;20307;-68
2023/05/09 05:06:35;;;;;;;;;;;15.00;99.90;;;;;;5013132;28;19932;-66
2023/05/09 05:09:00;;;;;;;;;;;15.10;99.90;;;;;;5020425;28;19940;-66
2023/05/09 05:11:26;;;;;;;;;;;15.00;99.90;;;;;;5026020;28;19925;-67
2023/05/09 05:13:51;;;;;;;;;;;15.00;99.90;;;;;;5018769;28;19936;-68
2023/05/09 05:16:17;;;;;;;;;;;15.00;99.90;;;;;;5017963;28;19921;-68
2023/05/09 05:18:42;;;;;;;;;;;15.10;99.90;;;;;;5024488;28;20272;-68
2023/05/09 05:21:08;;;;;;;;;;;15.10;99.90;;;;;;5014668;28;20339;-68
2023/05/09 05:23:33;;;;;;;;;;;15.10;99.90;;;;;;5026385;28;19928;-67
2023/05/09 05:25:59;;;;;;;;;;;15.10;99.90;;;;;;5016604;28;19928;-67
2023/05/09 05:28:24;;;;;;;;;;;15.20;99.90;;;;;;5017158;28;20291;-66
2023/05/09 05:30:50;;;;;;;;;;;15.10;99.90;;;;;;5012632;28;19925;-68
2023/05/09 05:33:15;;;;;;;;;;;15.10;99.90;;;;;;5025092;28;19936;-67
2023/05/09 05:35:41;;;;;;;;;;;15.10;99.90;;;;;;5021979;28;19921;-68
2023/05/09 05:38:06;;;;;;;;;;;15.10;99.90;;;;;;5023592;28;19928;-68
2023/05/09 05:40:32;;;;;;;;;;;15.10;99.90;;;;;;5024248;28;19926;-68
2023/05/09 05:42:57;;;;;;;;;;;15.10;99.90;;;;;;5025795;28;19944;-67
2023/05/09 05:45:23;;;;;;;;;;;15.20;99.90;;;;;;5032694;28;19932;-66
2023/05/09 05:47:48;;;;;;;;;;;15.10;99.90;;;;;;5032152;28;19921;-66
2023/05/09 05:50:14;;;;;;;;;;;15.10;99.90;;;;;;5023248;28;19927;-66
2023/05/09 05:52:40;;;;;;;;;;;15.20;99.90;;;;;;5027838;28;19928;-66
2023/05/09 05:55:06;;;;;;;;;;;15.20;99.90;;;;;;5023039;28;20012;-66
2023/05/09 05:57:33;;;;;;;;;;;15.20;99.90;;;;;;5028403;28;20000;-66
2023/05/09 05:59:58;;;;;;;;;;;15.20;99.90;;;;;;5022198;28;19929;-68
2023/05/09 06:02:24;;;;;;;;;;;15.30;99.90;;;;;;5019566;28;19926;-66
2023/05/09 06:04:49;;;;;;;;;;;15.30;99.90;;;;;;5030311;28;19937;-68
2023/05/09 06:07:15;;;;;;;;;;;15.40;99.90;;;;;;5030326;28;20339;-67
2023/05/09 06:09:40;;;;;;;;;;;15.50;99.90;;;;;;5023805;28;19976;-68
2023/05/09 06:12:06;;;;;;;;;;;15.50;99.90;;;;;;5024334;28;19925;-67
2023/05/09 06:14:31;;;;;;;;;;;15.60;99.90;;;;;;5028659;28;19928;-66
2023/05/09 06:16:57;;;;;;;;;;;15.70;99.90;;;;;;5033661;28;20004;-67
2023/05/09 06:19:23;;;;;;;;;;;15.80;99.90;;;;;;5024092;28;19921;-66
2023/05/09 06:21:48;;;;;;;;;;;15.90;99.90;;;;;;5031097;28;19921;-66
2023/05/09 06:24:13;;;;;;;;;;;15.90;99.90;;;;;;5021266;28;19936;-66
2023/05/09 06:26:39;;;;;;;;;;;16.00;99.90;;;;;;5017848;28;20006;-67
2023/05/09 06:29:05;;;;;;;;;;;16.00;99.90;;;;;;5023849;28;20399;-66
2023/05/09 06:31:31;;;;;;;;;;;16.10;99.90;;;;;;5030892;28;19925;-66
2023/05/09 06:33:56;;;;;;;;;;;16.00;99.90;;;;;;5031304;28;19932;-68
2023/05/09 06:36:22;;;;;;;;;;;16.10;99.90;;;;;;5022539;28;19921;-66
2023/05/09 06:38:47;;;;;;;;;;;16.10;99.90;;;;;;5030622;28;20337;-67
2023/05/09 06:41:12;;;;;;;;;;;16.10;99.90;;;;;;5029944;28;19932;-67
2023/05/09 06:43:38;;;;;;;;;;;16.20;99.90;;;;;;5028334;28;19928;-68
2023/05/09 06:46:04;;;;;;;;;;;16.20;99.90;;;;;;5029469;28;20030;-68
2023/05/09 06:48:29;;;;;;;;;;;16.20;99.90;;;;;;5030378;28;19921;-67
2023/05/09 06:50:55;;;;;;;;;;;16.20;99.90;;;;;;5030256;28;19928;-66
2023/05/09 06:53:20;;;;;;;;;;;16.30;99.90;;;;;;5024330;28;20446;-66
2023/05/09 06:55:46;;;;;;;;;;;16.30;99.90;;;;;;5030757;28;20287;-66
2023/05/09 06:58:11;;;;;;;;;;;16.40;99.90;;;;;;5031864;28;19920;-66
2023/05/09 07:00:37;;;;;;;;;;;16.40;99.90;;;;;;5025684;28;19968;-65
2023/05/09 07:03:02;;;;;;;;;;;16.40;99.90;;;;;;5031610;28;20414;-66
2023/05/09 07:05:28;;;;;;;;;;;16.40;99.90;;;;;;5029285;28;19925;-66
2023/05/09 07:07:54;;;;;;;;;;;16.40;99.90;;;;;;5029119;28;19943;-67
2023/05/09 07:10:20;;;;;;;;;;;16.40;99.90;;;;;;5023783;28;19936;-65
2023/05/09 07:12:46;;;;;;;;;;;16.40;99.90;;;;;;5022428;28;20458;-66
2023/05/09 07:15:11;;;;;;;;;;;16.50;99.90;;;;;;5024969;28;20020;-67
2023/05/09 07:17:37;;;;;;;;;;;16.40;99.90;;;;;;5021466;28;19948;-67
2023/05/09 07:20:04;;;;;;;;;;;16.50;99.90;;;;;;5028716;28;19947;-67
2023/05/09 07:22:30;;;;;;;;;;;16.60;99.90;;;;;;5027739;28;19940;-66
2023/05/09 07:24:55;;;;;;;;;;;16.60;99.90;;;;;;5029437;28;19925;-68
2023/05/09 07:27:21;;;;;;;;;;;16.70;99.90;;;;;;5024746;28;19925;-67
2023/05/09 07:29:48;;;;;;;;;;;16.70;99.90;;;;;;5027944;28;20364;-66
2023/05/09 07:32:13;;;;;;;;;;;16.70;99.90;;;;;;5029156;28;20039;-66
2023/05/09 07:34:39;;;;;;;;;;;16.80;99.90;;;;;;5025184;28;20015;-66
2023/05/09 07:37:04;;;;;;;;;;;16.80;99.90;;;;;;5022123;28;20031;-66
2023/05/09 07:39:30;;;;;;;;;;;16.90;99.90;;;;;;5029226;28;19999;-66
2023/05/09 07:41:55;;;;;;;;;;;17.00;99.90;;;;;;5006615;28;20928;-65
2023/05/09 07:44:21;;;;;;;;;;;17.00;99.90;;;;;;5021248;28;19990;-66
2023/05/09 07:46:46;;;;;;;;;;;17.10;99.90;;;;;;5026644;28;20401;-66
2023/05/09 07:49:12;;;;;;;;;;;17.10;99.90;;;;;;5016737;28;19925;-66
2023/05/09 07:51:37;;;;;;;;;;;17.20;99.90;;;;;;5021262;28;19929;-66
2023/05/09 07:54:03;;;;;;;;;;;17.30;99.90;;;;;;5028039;28;19925;-66
2023/05/09 07:56:28;;;;;;;;;;;17.40;99.90;;;;;;5028382;28;19936;-66
2023/05/09 07:58:54;;;;;;;;;;;17.50;99.90;;;;;;5028018;28;20344;-66
2023/05/09 08:01:19;;;;;;;;;;;17.60;99.90;;;;;;5023365;28;19921;-66
2023/05/09 08:03:45;;;;;;;;;;;17.70;99.90;;;;;;5018218;28;19921;-66
2023/05/09 08:06:11;;;;;;;;;;;17.60;99.90;;;;;;5028704;28;19929;-66
2023/05/09 08:08:36;;;;;;;;;;;17.60;99.90;;;;;;5012240;28;20062;-66
2023/05/09 08:11:03;;;;;;;;;;;17.60;99.90;;;;;;5030058;28;19921;-67
2023/05/09 08:13:29;;;;;;;;;;;17.60;99.90;;;;;;5030230;28;20272;-68
2023/05/09 08:15:54;;;;;;;;;;;17.60;99.90;;;;;;5024486;28;20418;-67
2023/05/09 08:18:19;;;;;;;;;;;17.60;99.90;;;;;;5022929;28;20373;-66
2023/05/09 08:20:45;;;;;;;;;;;17.60;99.90;;;;;;5031168;28;19925;-67
2023/05/09 08:23:10;;;;;;;;;;;17.50;99.90;;;;;;5024530;28;19933;-67
2023/05/09 08:25:36;;;;;;;;;;;17.50;99.90;;;;;;5022330;28;19925;-67
2023/05/09 08:28:01;;;;;;;;;;;17.50;99.90;;;;;;5029878;28;19973;-67
2023/05/09 08:30:28;;;;;;;;;;;17.50;99.90;;;;;;5031452;28;19921;-68
2023/05/09 08:32:54;;;;;;;;;;;17.40;99.90;;;;;;5013632;28;19921;-67
2023/05/09 08:35:20;;;;;;;;;;;17.40;99.90;;;;;;5024988;28;19922;-67
2023/05/09 08:37:46;;;;;;;;;;;17.50;99.90;;;;;;5030666;28;20016;-67
2023/05/09 08:40:12;;;;;;;;;;;17.60;99.90;;;;;;5027420;28;19928;-67
2023/05/09 08:42:39;;;;;;;;;;;17.70;99.90;;;;;;5016202;28;19921;-67
2023/05/09 08:45:13;;;;;;;;;;;17.80;99.90;;;;;;5009316;28;20400;-66
2023/05/09 08:47:39;;;;;;;;;;;17.90;99.90;;;;;;4978480;28;19968;-64
2023/05/09 08:50:05;;;;;;;;;;;18.00;99.90;;;;;;4992038;28;20303;-67
2023/05/09 08:52:34;;;;;;;;;;;18.10;99.90;;;;;;4999059;28;19976;-67
2023/05/09 08:55:00;;;;;;;;;;;18.20;99.90;;;;;;4988835;28;19929;-65
2023/05/09 08:57:26;;;;;;;;;;;18.40;99.90;;;;;;4980618;28;20007;-64
2023/05/09 08:59:52;;;;;;;;;;;18.70;99.90;;;;;;4985149;28;20027;-66
2023/05/09 09:02:18;;;;;;;;;;;19.00;99.90;;;;;;5004846;28;19932;-65
2023/05/09 09:04:44;;;;;;;;;;;19.30;99.90;;;;;;5015438;28;19949;-66
2023/05/09 09:07:10;;;;;;;;;;;19.40;99.90;;;;;;5015311;28;20418;-67
2023/05/09 09:09:36;;;;;;;;;;;19.60;99.90;;;;;;5030419;28;20315;-66
2023/05/09 09:12:08;;;;;;;;;;;19.70;99.90;;;;;;5015971;28;19925;-67
2023/05/09 09:14:36;;;;;;;;;;;19.50;99.90;;;;;;5020233;28;20384;-67
2023/05/09 09:17:03;;;;;;;;;;;19.40;99.90;;;;;;5022766;28;19928;-66
2023/05/09 09:19:30;;;;;;;;;;;19.50;99.90;;;;;;5022449;28;19932;-65
2023/05/09 09:21:57;;;;;;;;;;;19.60;99.90;;;;;;5022478;28;19921;-66
2023/05/09 09:24:23;;;;;;;;;;;19.60;99.90;;;;;;5032916;28;19921;-66
2023/05/09 09:26:49;;;;;;;;;;;19.60;99.90;;;;;;5028753;28;19925;-66
2023/05/09 09:29:16;;;;;;;;;;;19.70;99.90;;;;;;5020157;28;20011;-66
2023/05/09 09:31:45;;;;;;;;;;;19.80;99.90;;;;;;5025139;28;19925;-66
2023/05/09 09:34:11;;;;;;;;;;;20.00;99.90;;;;;;5031111;28;20387;-66
2023/05/09 09:36:36;;;;;;;;;;;20.10;99.90;;;;;;5034386;28;20379;-66
2023/05/09 09:39:03;;;;;;;;;;;20.20;99.90;;;;;;5023216;28;19977;-66
2023/05/09 09:41:32;;;;;;;;;;;20.30;99.90;;;;;;5032158;28;19921;-66
2023/05/09 09:43:58;;;;;;;;;;;20.30;99.90;;;;;;5033710;28;19921;-66
2023/05/09 09:46:23;;;;;;;;;;;20.40;99.90;;;;;;5033959;28;19970;-66
2023/05/09 09:48:53;;;;;;;;;;;20.50;99.90;;;;;;5021052;28;20003;-66
2023/05/09 09:51:19;;;;;;;;;;;20.30;99.90;;;;;;5024478;28;20398;-66
2023/05/09 09:53:46;;;;;;;;;;;20.50;99.90;;;;;;5030759;28;19924;-67
2023/05/09 09:56:11;;;;;;;;;;;20.50;99.90;;;;;;5031989;28;19925;-67
2023/05/09 09:58:37;;;;;;;;;;;20.00;99.90;;;;;;5033404;28;19921;-67
2023/05/09 10:01:04;;;;;;;;;;;20.30;99.90;;;;;;5022585;28;19921;-68
2023/05/09 10:03:40;;;;;;;;;;;20.50;99.90;;;;;;5025415;28;20019;-68
2023/05/09 10:06:08;;;;;;;;;;;20.60;99.90;;;;;;5024035;28;19941;-68
2023/05/09 10:08:34;;;;;;;;;;;20.70;99.90;;;;;;5029407;28;20008;-68
2023/05/09 10:11:00;;;;;;;;;;;20.70;99.90;;;;;;5031929;28;20518;-67
2023/05/09 10:13:26;;;;;;;;;;;20.70;99.90;;;;;;5020531;28;19921;-66
2023/05/09 10:15:53;;;;;;;;;;;20.60;99.90;;;;;;5024933;28;20011;-67
2023/05/09 10:18:23;;;;;;;;;;;20.70;99.90;;;;;;5024668;28;19921;-66
2023/05/09 10:20:49;;;;;;;;;;;20.70;99.90;;;;;;5015320;28;20380;-66
2023/05/09 10:23:15;;;;;;;;;;;20.60;99.90;;;;;;5024376;28;20004;-66
2023/05/09 10:25:41;;;;;;;;;;;20.40;99.90;;;;;;5030920;28;20655;-67
2023/05/09 10:28:09;;;;;;;;;;;20.60;99.90;;;;;;5031998;28;19929;-67
2023/05/09 10:30:38;;;;;;;;;;;20.80;99.90;;;;;;5030494;28;19922;-67
2023/05/09 10:33:07;;;;;;;;;;;21.10;99.90;;;;;;5024540;28;19941;-66
2023/05/09 10:35:35;;;;;;;;;;;21.30;99.90;;;;;;5019884;28;19976;-68
2023/05/09 10:38:01;;;;;;;;;;;21.50;99.90;;;;;;5021445;28;19928;-68
2023/05/09 10:40:27;;;;;;;;;;;21.80;99.90;;;;;;5026363;28;20419;-67
2023/05/09 10:42:53;;;;;;;;;;;21.90;99.90;;;;;;5029793;28;20280;-67
2023/05/09 10:45:19;;;;;;;;;;;21.80;99.90;;;;;;5022099;28;19922;-68
2023/05/09 10:47:46;;;;;;;;;;;21.50;99.90;;;;;;5024328;28;19922;-67
2023/05/09 10:50:14;;;;;;;;;;;21.50;99.90;;;;;;5019334;28;19932;-67
2023/05/09 10:52:58;;;;;;;;;;;21.50;99.90;;;;;;5026230;28;20298;-66
2023/05/09 10:55:34;;;;;;;;;;;21.40;99.90;;;;;;5019842;28;20036;-66
2023/05/09 10:58:06;;;;;;;;;;;21.40;99.90;;;;;;5026947;28;19921;-66
2023/05/09 11:00:31;;;;;;;;;;;21.50;99.90;;;;;;5032587;28;20381;-66
2023/05/09 11:03:06;;;;;;;;;;;21.50;99.90;;;;;;5019152;28;20020;-66
2023/05/09 11:05:37;;;;;;;;;;;21.40;99.90;;;;;;5024952;28;19986;-66
2023/05/09 11:08:19;;;;;;;;;;;21.40;99.90;;;;;;5019384;28;19927;-66
2023/05/09 11:10:45;;;;;;;;;;;21.40;99.90;;;;;;5000060;28;19936;-66
2023/05/09 11:13:10;;;;;;;;;;;21.30;99.90;;;;;;5026282;28;19921;-66
2023/05/09 11:15:48;;;;;;;;;;;21.30;99.90;;;;;;4999190;28;19929;-66
2023/05/09 11:18:14;;;;;;;;;;;21.30;99.90;;;;;;5000920;28;19932;-68
2023/05/09 11:20:43;;;;;;;;;;;21.20;99.90;;;;;;5010827;28;20012;-68
2023/05/09 11:23:10;;;;;;;;;;;20.80;99.90;;;;;;5026884;28;19921;-66
2023/05/09 11:25:37;;;;;;;;;;;20.50;99.90;;;;;;5018671;28;19929;-66
2023/05/09 11:28:03;;;;;;;;;;;20.50;99.90;;;;;;5006544;28;20009;-66
2023/05/09 11:30:38;;;;;;;;;;;20.50;99.90;;;;;;4986560;28;19922;-66
2023/05/09 11:33:05;;;;;;;;;;;20.60;99.90;;;;;;5028585;28;19956;-66
2023/05/09 11:35:32;;;;;;;;;;;20.90;99.90;;;;;;5037148;22;19925;-65
2023/05/09 11:38:02;;;;;;;;;;;21.10;99.90;;;;;;5041217;28;19933;-65
2023/05/09 11:40:29;;;;;;;;;;;21.40;99.90;;;;;;5048949;28;19921;-66
2023/05/09 11:42:55;;;;;;;;;;;21.20;99.90;;;;;;5044713;28;19975;-66
2023/05/09 11:45:21;;;;;;;;;;;21.10;99.90;;;;;;5038234;28;19978;-67
2023/05/09 11:47:47;;;;;;;;;;;21.30;99.90;;;;;;5046670;28;20390;-66
2023/05/09 11:50:13;;;;;;;;;;;21.60;99.90;;;;;;5064422;28;19924;-67
2023/05/09 11:52:40;;;;;;;;;;;21.80;99.90;;;;;;5061838;28;19974;-66
2023/05/09 11:55:09;;;;;;;;;;;21.90;99.90;;;;;;5044982;28;20378;-66
2023/05/09 11:57:35;;;;;;;;;;;22.00;99.90;;;;;;5047953;28;20015;-63
2023/05/09 12:00:02;;;;;;;;;;;22.20;99.90;;;;;;5049156;28;19921;-64
2023/05/09 12:02:27;;;;;;;;;;;22.20;99.90;;;;;;5049280;28;19947;-65
2023/05/09 12:04:53;;;;;;;;;;;22.40;99.90;;;;;;5043357;28;19924;-65
2023/05/09 12:07:19;;;;;;;;;;;22.60;99.90;;;;;;5046094;28;19927;-66
2023/05/09 12:09:47;;;;;;;;;;;22.70;99.90;;;;;;5049966;28;19978;-66
2023/05/09 12:12:13;;;;;;;;;;;22.40;99.90;;;;;;5046020;28;20588;-64
2023/05/09 12:14:39;;;;;;;;;;;22.40;99.90;;;;;;5040558;28;19948;-63
2023/05/09 12:17:07;;;;;;;;;;;22.40;99.90;;;;;;5045703;28;19921;-64
2023/05/09 12:19:33;;;;;;;;;;;22.10;99.90;;;;;;5043588;28;19967;-65
2023/05/09 12:21:59;;;;;;;;;;;21.80;99.90;;;;;;5053988;28;19924;-66
2023/05/09 12:24:27;;;;;;;;;;;21.60;99.90;;;;;;5052439;28;19966;-65
2023/05/09 12:26:54;;;;;;;;;;;21.80;99.90;;;;;;5043246;28;20362;-66
2023/05/09 12:29:20;;;;;;;;;;;22.00;99.90;;;;;;5051746;28;20329;-65
2023/05/09 12:31:46;;;;;;;;;;;22.10;99.90;;;;;;5054153;28;19959;-66
2023/05/09 12:34:12;;;;;;;;;;;21.90;99.90;;;;;;5040605;28;19952;-66
2023/05/09 12:36:38;;;;;;;;;;;21.60;99.90;;;;;;5037253;28;20310;-65
2023/05/09 12:39:09;;;;;;;;;;;21.60;99.90;;;;;;5054556;28;19931;-65
2023/05/09 12:41:55;;;;;;;;;;;21.80;99.90;;;;;;5055237;28;20638;-65
2023/05/09 12:44:21;;;;;;;;;;;21.70;99.90;;;;;;5035298;28;19921;-63
2023/05/09 12:46:56;;;;;;;;;;;21.50;99.90;;;;;;5047415;28;19974;-63
2023/05/09 12:49:22;;;;;;;;;;;21.00;99.90;;;;;;5037439;28;20477;-63
2023/05/09 12:51:49;;;;;;;;;;;20.70;99.90;;;;;;5037516;28;19921;-63
2023/05/09 12:54:22;;;;;;;;;;;20.60;99.90;;;;;;5041054;28;19947;-63
2023/05/09 12:56:47;;;;;;;;;;;20.60;99.90;;;;;;5046845;28;19975;-66
2023/05/09 12:59:19;;;;;;;;;;;20.60;99.90;;;;;;5040204;28;20703;-64
2023/05/09 13:01:49;;;;;;;;;;;20.70;99.90;;;;;;5045968;28;19928;-63
2023/05/09 13:04:18;;;;;;;;;;;20.70;99.90;;;;;;5037191;28;20120;-65
2023/05/09 13:06:47;;;;;;;;;;;20.70;99.90;;;;;;5040359;28;19924;-63
2023/05/09 13:09:13;;;;;;;;;;;20.60;99.90;;;;;;5039404;28;19998;-65
2023/05/09 13:11:39;;;;;;;;;;;20.50;99.90;;;;;;5053799;28;20411;-63
2023/05/09 13:14:04;;;;;;;;;;;20.50;99.90;;;;;;5054765;28;20366;-63
2023/05/09 13:16:30;;;;;;;;;;;20.50;99.90;;;;;;5040431;28;19921;-64
2023/05/09 13:18:55;;;;;;;;;;;20.40;99.90;;;;;;5045036;28;19920;-64
2023/05/09 13:21:21;;;;;;;;;;;20.40;99.90;;;;;;5053817;28;20394;-65
2023/05/09 13:23:48;;;;;;;;;;;20.20;99.90;;;;;;5048591;28;19949;-64
2023/05/09 13:26:14;;;;;;;;;;;20.00;99.90;;;;;;5036566;28;19921;-68
2023/05/09 13:28:39;;;;;;;;;;;20.00;99.90;;;;;;5046562;28;19924;-68
2023/05/09 13:31:05;;;;;;;;;;;19.90;99.90;;;;;;5043182;28;19920;-68
2023/05/09 13:33:31;;;;;;;;;;;19.80;99.90;;;;;;5043239;28;20004;-68
2023/05/09 13:35:56;;;;;;;;;;;19.60;99.90;;;;;;5039969;28;20440;-68
2023/05/09 13:38:22;;;;;;;;;;;19.50;99.90;;;;;;5049226;28;19921;-68
2023/05/09 13:40:47;;;;;;;;;;;19.40;99.90;;;;;;5047995;28;19947;-68
2023/05/09 13:43:13;;;;;;;;;;;19.30;99.90;;;;;;5041824;28;19924;-68
2023/05/09 13:45:38;;;;;;;;;;;19.20;99.90;;;;;;5053777;28;19928;-67
2023/05/09 13:48:04;;;;;;;;;;;19.20;99.90;;;;;;5053375;28;19928;-68
2023/05/09 13:50:29;;;;;;;;;;;19.30;99.90;;;;;;5046957;28;19921;-68
2023/05/09 13:52:55;;;;;;;;;;;19.30;99.90;;;;;;5053191;28;20443;-68
2023/05/09 13:55:20;;;;;;;;;;;19.20;99.90;;;;;;5053334;28;19966;-68
2023/05/09 13:57:46;;;;;;;;;;;19.30;99.90;;;;;;5039086;28;19921;-67
2023/05/09 14:00:11;;;;;;;;;;;19.20;99.90;;;;;;5036956;28;19952;-67
2023/05/09 14:02:37;;;;;;;;;;;19.10;99.90;;;;;;5038340;28;19964;-67
2023/05/09 14:05:03;;;;;;;;;;;19.10;99.90;;;;;;5049555;28;19925;-68
2023/05/09 14:07:28;;;;;;;;;;;19.00;99.90;;;;;;5048627;28;20341;-68
2023/05/09 14:09:54;;;;;;;;;;;19.00;99.90;;;;;;5050258;28;19975;-67
2023/05/09 14:12:20;;;;;;;;;;;18.90;99.90;;;;;;5052574;28;19967;-67